Terminal Aerodrome Forecast
Issued by NWS Grand Forks, ND

Home | Current Version | Previous Version | Text Only | Print | Product List | Glossary Off
Versions: 1 2 3 4 5 6 7 8 9 10 11 12 13 14 15

000
FTUS43 KFGF 152300
TAFFAR
TAF
KFAR 152320Z 1600/1624 17018G28KT P6SM SCT250
     FM160100 17014KT P6SM SCT070
      TEMPO 1602/1606 BKN070
     FM161500 28007KT P6SM BKN070
     FM161800 34012KT P6SM BKN070=

USA.gov is the U.S. government's official web portal to all federal, state and local government web resources and services.